createdAt,value
2019-05-05T00:00:50.254Z,57.40
2019-05-05T00:03:18.424Z,57.40
2019-05-05T00:05:30.339Z,57.50
2019-05-05T00:07:36.011Z,57.60
2019-05-05T00:09:41.468Z,57.60
2019-05-05T00:12:05.361Z,57.80
2019-05-05T00:14:38.560Z,58.00
2019-05-05T00:16:58.104Z,58.60
2019-05-05T00:19:04.801Z,58.10
2019-05-05T00:21:09.896Z,58.10
2019-05-05T00:23:15.313Z,58.20
2019-05-05T00:25:20.393Z,58.30
2019-05-05T00:27:25.944Z,58.40
2019-05-05T00:29:31.390Z,59.10
2019-05-05T00:31:36.956Z,58.50
2019-05-05T00:33:44.717Z,58.60
2019-05-05T00:35:49.680Z,58.70
2019-05-05T00:37:55.845Z,58.70
2019-05-05T00:40:01.218Z,58.70
2019-05-05T00:42:06.946Z,58.70
2019-05-05T00:44:12.035Z,58.60
2019-05-05T00:46:24.528Z,58.30
2019-05-05T00:48:42.020Z,58.30
2019-05-05T00:50:47.783Z,58.30
2019-05-05T00:52:54.931Z,58.30
2019-05-05T00:55:00.070Z,58.20
2019-05-05T00:57:05.228Z,58.30
2019-05-05T00:59:14.697Z,58.30
2019-05-05T01:02:00.500Z,58.10
2019-05-05T01:04:07.630Z,57.90
2019-05-05T01:06:18.829Z,57.70
2019-05-05T01:08:26.133Z,57.80
2019-05-05T01:10:31.946Z,57.80
2019-05-05T01:12:38.439Z,57.80
2019-05-05T01:14:44.763Z,57.80
2019-05-05T01:16:50.360Z,57.80
2019-05-05T01:18:55.781Z,57.70
2019-05-05T01:21:01.224Z,57.50
2019-05-05T01:23:08.929Z,57.50
2019-05-05T01:25:15.024Z,57.50
2019-05-05T01:27:20.507Z,57.50
2019-05-05T01:29:25.947Z,57.60
2019-05-05T01:31:31.392Z,57.80
2019-05-05T01:33:41.772Z,57.80
2019-05-05T01:35:46.929Z,57.80
2019-05-05T01:38:00.674Z,57.80
2019-05-05T01:40:26.500Z,57.80
2019-05-05T01:42:32.036Z,57.70
2019-05-05T01:44:37.537Z,57.60
2019-05-05T01:46:44.515Z,57.50
2019-05-05T01:48:49.807Z,57.90
2019-05-05T01:50:55.058Z,57.60
2019-05-05T01:53:00.482Z,57.60
2019-05-05T01:55:06.173Z,57.60
2019-05-05T01:57:12.145Z,57.50
2019-05-05T01:59:17.513Z,57.70
2019-05-05T02:01:26.403Z,57.60
2019-05-05T02:03:31.944Z,57.50
2019-05-05T02:05:37.444Z,57.30
2019-05-05T02:07:44.655Z,57.30
2019-05-05T02:09:49.831Z,57.20
2019-05-05T02:11:55.096Z,57.30
2019-05-05T02:14:00.516Z,57.40
2019-05-05T02:16:06.003Z,57.30
2019-05-05T02:18:11.647Z,57.30
2019-05-05T02:20:59.611Z,57.20
2019-05-05T02:23:04.784Z,57.10
2019-05-05T02:25:09.945Z,56.90
2019-05-05T02:27:15.879Z,56.90
2019-05-05T02:29:27.589Z,56.90
2019-05-05T02:31:55.357Z,57.00
2019-05-05T02:34:00.552Z,57.00
2019-05-05T02:36:06.157Z,57.20
2019-05-05T02:38:15.391Z,57.10
2019-05-05T02:40:19.825Z,57.10
2019-05-05T02:42:27.712Z,57.00
2019-05-05T02:44:34.860Z,56.90
2019-05-05T02:46:55.103Z,56.90
2019-05-05T02:49:05.450Z,56.90
2019-05-05T02:51:15.220Z,56.80
2019-05-05T02:53:21.508Z,56.90
2019-05-05T02:55:26.973Z,56.80
2019-05-05T02:57:34.555Z,56.80
2019-05-05T02:59:47.549Z,56.70
2019-05-05T03:02:10.300Z,56.80
2019-05-05T03:04:15.829Z,56.80
2019-05-05T03:06:21.009Z,56.70
2019-05-05T03:08:27.916Z,56.90
2019-05-05T03:10:34.118Z,57.00
2019-05-05T03:12:41.278Z,57.20
2019-05-05T03:14:48.177Z,58.00
2019-05-05T03:16:54.489Z,57.60
2019-05-05T03:18:59.845Z,57.60
2019-05-05T03:21:07.417Z,57.80
2019-05-05T03:23:13.714Z,57.90
2019-05-05T03:25:19.295Z,57.80
2019-05-05T03:27:25.024Z,57.90
2019-05-05T03:29:30.813Z,57.90
2019-05-05T03:31:36.302Z,58.00
2019-05-05T03:33:45.589Z,58.00
2019-05-05T03:35:49.449Z,58.30
2019-05-05T03:37:55.599Z,58.30
2019-05-05T03:40:07.743Z,58.20
2019-05-05T03:42:24.507Z,58.10
2019-05-05T03:44:33.782Z,58.30
2019-05-05T03:46:39.072Z,58.40
2019-05-05T03:48:44.505Z,58.40
2019-05-05T03:50:50.260Z,58.60
2019-05-05T03:52:56.214Z,58.60
2019-05-05T03:55:03.829Z,58.80
2019-05-05T03:57:09.992Z,58.90
2019-05-05T03:59:15.879Z,59.00
2019-05-05T04:01:54.591Z,59.00
2019-05-05T04:04:19.014Z,59.10
2019-05-05T04:06:37.978Z,58.90
2019-05-05T04:08:44.492Z,58.90
2019-05-05T04:10:50.434Z,58.90
2019-05-05T04:12:57.631Z,59.10
2019-05-05T04:15:03.952Z,59.20
2019-05-05T04:17:18.693Z,59.30
2019-05-05T04:19:25.173Z,59.40
2019-05-05T04:21:33.890Z,59.50
2019-05-05T04:23:37.036Z,59.50
2019-05-05T04:25:43.903Z,59.60
2019-05-05T04:27:49.465Z,60.50
2019-05-05T04:29:54.917Z,59.70
2019-05-05T04:31:59.931Z,59.80
2019-05-05T04:34:05.030Z,59.90
2019-05-05T04:36:10.252Z,59.90
2019-05-05T04:38:15.654Z,59.90
2019-05-05T04:40:20.921Z,59.90
2019-05-05T04:42:25.908Z,59.90
2019-05-05T04:44:31.409Z,60.20
2019-05-05T04:46:37.223Z,60.30
2019-05-05T04:48:52.045Z,60.30
2019-05-05T04:51:14.482Z,60.40
2019-05-05T04:53:25.301Z,60.30
2019-05-05T04:55:30.683Z,60.40
2019-05-05T04:57:36.027Z,60.40
2019-05-05T04:59:41.343Z,60.50
2019-05-05T05:01:48.081Z,60.70
2019-05-05T05:04:00.665Z,60.60
2019-05-05T05:06:15.219Z,60.70
2019-05-05T05:08:21.116Z,60.80
2019-05-05T05:10:26.356Z,60.80
2019-05-05T05:12:31.698Z,60.90
2019-05-05T05:14:36.853Z,61.10
2019-05-05T05:16:43.689Z,61.20
2019-05-05T05:18:49.633Z,61.30
2019-05-05T05:20:55.089Z,61.30
2019-05-05T05:23:00.382Z,61.10
2019-05-05T05:25:05.903Z,61.10
2019-05-05T05:27:11.183Z,61.30
2019-05-05T05:29:16.291Z,61.30
2019-05-05T05:31:21.363Z,61.30
2019-05-05T05:33:26.848Z,61.30
2019-05-05T05:35:33.663Z,61.30
2019-05-05T05:37:38.785Z,61.30
2019-05-05T05:40:03.935Z,62.30
2019-05-05T05:42:09.645Z,61.60
2019-05-05T05:44:21.687Z,61.70
2019-05-05T05:46:57.962Z,61.80
2019-05-05T05:49:17.298Z,61.90
2019-05-05T05:51:23.824Z,61.80
2019-05-05T05:53:29.653Z,61.70
2019-05-05T05:55:35.461Z,61.90
2019-05-05T05:57:40.394Z,62.00
2019-05-05T05:59:45.922Z,62.00
2019-05-05T06:01:51.381Z,62.00
2019-05-05T06:03:56.558Z,62.20
2019-05-05T06:06:02.017Z,62.30
2019-05-05T06:08:07.473Z,62.50
2019-05-05T06:10:22.216Z,62.80
2019-05-05T06:12:19.678Z,62.70
2019-05-05T06:14:24.876Z,62.80
2019-05-05T06:16:30.029Z,62.70
2019-05-05T06:18:35.211Z,63.00
2019-05-05T06:20:40.381Z,63.20
2019-05-05T06:22:45.899Z,63.20
2019-05-05T06:24:53.959Z,63.30
2019-05-05T06:26:58.621Z,63.50
2019-05-05T06:29:04.348Z,63.80
2019-05-05T06:31:09.836Z,63.80
2019-05-05T06:33:15.200Z,63.80
2019-05-05T06:35:20.305Z,64.20
2019-05-05T06:37:25.535Z,64.50
2019-05-05T06:39:33.340Z,65.40
2019-05-05T06:41:53.973Z,64.60
2019-05-05T06:44:33.896Z,64.60
2019-05-05T06:46:57.195Z,64.50
2019-05-05T06:49:04.216Z,64.30
2019-05-05T06:51:09.202Z,65.20
2019-05-05T06:53:14.813Z,64.60
2019-05-05T06:55:20.349Z,64.80
2019-05-05T06:57:25.416Z,64.90
2019-05-05T06:59:31.068Z,65.10
2019-05-05T07:01:36.228Z,65.00
2019-05-05T07:03:43.759Z,65.00
2019-05-05T07:05:48.950Z,65.00
2019-05-05T07:07:54.708Z,65.20
2019-05-05T07:09:59.879Z,65.30
2019-05-05T07:12:05.046Z,66.40
2019-05-05T07:14:11.136Z,65.70
2019-05-05T07:16:16.338Z,66.20
2019-05-05T07:18:21.648Z,66.30
2019-05-05T07:20:26.757Z,67.20
2019-05-05T07:22:34.524Z,66.40
2019-05-05T07:24:39.490Z,66.40
2019-05-05T07:26:44.805Z,66.40
2019-05-05T07:28:50.163Z,66.70
2019-05-05T07:30:55.793Z,66.80
2019-05-05T07:33:01.196Z,66.80
2019-05-05T07:35:28.162Z,66.90
2019-05-05T07:37:34.414Z,66.90
2019-05-05T07:39:39.606Z,66.90
2019-05-05T07:41:45.253Z,66.60
2019-05-05T07:43:50.529Z,66.50
2019-05-05T07:45:55.471Z,66.40
2019-05-05T07:48:01.271Z,66.30
2019-05-05T07:50:11.644Z,66.00
2019-05-05T07:52:15.268Z,65.90
2019-05-05T07:54:20.874Z,65.80
2019-05-05T07:56:25.996Z,65.80
2019-05-05T07:58:31.074Z,65.80
2019-05-05T08:00:36.841Z,65.90
2019-05-05T08:02:43.880Z,66.00
2019-05-05T08:04:50.311Z,65.90
2019-05-05T08:06:55.788Z,66.10
2019-05-05T08:09:00.958Z,66.20
2019-05-05T08:11:06.134Z,66.10
2019-05-05T08:13:11.214Z,65.70
2019-05-05T08:15:18.124Z,65.50
2019-05-05T08:18:00.834Z,65.30
2019-05-05T08:20:14.285Z,65.20
2019-05-05T08:22:19.495Z,65.40
2019-05-05T08:24:46.632Z,65.30
2019-05-05T08:26:59.898Z,64.90
2019-05-05T08:29:23.956Z,64.90
2019-05-05T08:31:55.067Z,65.10
2019-05-05T08:34:00.175Z,65.30
2019-05-05T08:36:05.320Z,65.30
2019-05-05T08:38:10.437Z,65.00
2019-05-05T08:40:15.954Z,65.10
2019-05-05T08:42:21.652Z,66.00
2019-05-05T08:44:26.642Z,65.40
2019-05-05T08:46:34.063Z,65.20
2019-05-05T08:48:39.115Z,64.90
2019-05-05T08:50:45.277Z,65.00
2019-05-05T08:52:50.526Z,64.70
2019-05-05T08:54:55.997Z,64.70
2019-05-05T08:57:04.063Z,64.70
2019-05-05T08:59:09.022Z,64.80
2019-05-05T09:01:14.964Z,64.70
2019-05-05T09:03:20.271Z,64.50
2019-05-05T09:05:25.469Z,64.40
2019-05-05T09:07:30.746Z,64.60
2019-05-05T09:09:36.116Z,64.60
2019-05-05T09:11:43.593Z,64.50
2019-05-05T09:13:48.594Z,63.90
2019-05-05T09:15:54.431Z,64.60
2019-05-05T09:18:00.405Z,64.70
2019-05-05T09:20:06.271Z,64.20
2019-05-05T09:22:11.451Z,63.90
2019-05-05T09:24:26.992Z,62.80
2019-05-05T09:26:50.840Z,62.00
2019-05-05T09:29:14.936Z,61.40
2019-05-05T09:31:20.505Z,61.50
2019-05-05T09:33:25.762Z,61.50
2019-05-05T09:35:30.970Z,61.00
2019-05-05T09:37:36.447Z,61.00
2019-05-05T09:39:43.688Z,60.80
2019-05-05T09:41:49.406Z,60.80
2019-05-05T09:43:54.842Z,60.90
2019-05-05T09:46:00.622Z,60.70
2019-05-05T09:48:06.110Z,60.60
2019-05-05T09:50:11.617Z,61.00
2019-05-05T09:52:17.009Z,61.20
2019-05-05T09:54:24.226Z,60.90
2019-05-05T09:56:29.565Z,60.60
2019-05-05T09:58:34.899Z,60.00
2019-05-05T10:00:44.026Z,59.60
2019-05-05T10:02:49.292Z,59.30
2019-05-05T10:04:55.091Z,58.70
2019-05-05T10:07:00.177Z,58.20
2019-05-05T10:09:08.038Z,57.50
2019-05-05T10:11:16.124Z,56.80
2019-05-05T10:13:20.112Z,56.80
2019-05-05T10:15:25.598Z,56.20
2019-05-05T10:17:30.775Z,55.50
2019-05-05T10:19:36.476Z,55.30
2019-05-05T10:21:41.681Z,55.60
2019-05-05T10:23:48.588Z,55.60
2019-05-05T10:25:57.355Z,55.60
2019-05-05T10:28:04.193Z,55.80
2019-05-05T10:30:10.692Z,55.60
2019-05-05T10:32:15.804Z,55.40
2019-05-05T10:34:24.065Z,55.80
2019-05-05T10:36:28.813Z,57.10
2019-05-05T10:38:35.639Z,57.20
2019-05-05T10:40:40.759Z,57.80
2019-05-05T10:42:53.816Z,58.30
2019-05-05T10:44:58.884Z,58.60
2019-05-05T10:47:04.710Z,58.40
2019-05-05T10:49:09.908Z,58.40
2019-05-05T10:51:15.128Z,58.50
2019-05-05T10:53:20.622Z,58.80
2019-05-05T10:55:25.803Z,59.50
2019-05-05T10:57:31.298Z,59.60
2019-05-05T10:59:37.117Z,58.80
2019-05-05T11:01:42.567Z,57.80
2019-05-05T11:03:47.979Z,58.20
2019-05-05T11:05:53.820Z,57.60
2019-05-05T11:07:59.206Z,57.30
2019-05-05T11:10:06.366Z,57.10
2019-05-05T11:12:11.644Z,56.10
2019-05-05T11:14:17.477Z,55.30
2019-05-05T11:16:22.823Z,54.60
2019-05-05T11:18:28.300Z,54.30
2019-05-05T11:20:34.218Z,54.00
2019-05-05T11:22:39.373Z,54.00
2019-05-05T11:24:57.270Z,53.90
2019-05-05T11:26:51.933Z,54.00
2019-05-05T11:28:58.295Z,54.10
2019-05-05T11:31:04.434Z,53.80
2019-05-05T11:33:23.725Z,53.30
2019-05-05T11:35:46.260Z,53.30
2019-05-05T11:37:51.442Z,53.70
2019-05-05T11:39:56.523Z,53.80
2019-05-05T11:42:04.234Z,53.90
2019-05-05T11:44:09.349Z,54.30
2019-05-05T11:46:15.318Z,54.50
2019-05-05T11:48:20.775Z,54.60
2019-05-05T11:50:26.128Z,54.80
2019-05-05T11:52:31.232Z,55.20
2019-05-05T11:54:37.153Z,55.20
2019-05-05T11:56:44.540Z,55.30
2019-05-05T11:58:49.238Z,55.60
2019-05-05T12:00:54.893Z,55.40
2019-05-05T12:03:00.117Z,55.50
2019-05-05T12:05:05.870Z,55.60
2019-05-05T12:07:10.910Z,55.80
2019-05-05T12:09:25.395Z,55.70
2019-05-05T12:11:30.695Z,55.90
2019-05-05T12:13:36.117Z,55.50
2019-05-05T12:15:44.625Z,55.40
2019-05-05T12:17:49.715Z,55.80
2019-05-05T12:19:54.807Z,56.90
2019-05-05T12:22:00.211Z,56.30
2019-05-05T12:24:14.243Z,56.40
2019-05-05T12:26:43.620Z,56.30
2019-05-05T12:29:06.721Z,55.80
2019-05-05T12:31:17.045Z,55.50
2019-05-05T12:33:24.219Z,55.20
2019-05-05T12:35:29.203Z,54.90
2019-05-05T12:37:34.629Z,54.40
2019-05-05T12:39:40.070Z,53.70
2019-05-05T12:41:45.620Z,52.90
2019-05-05T12:43:50.851Z,53.00
2019-05-05T12:46:05.497Z,52.70
2019-05-05T12:48:18.644Z,52.20
2019-05-05T12:50:24.575Z,52.40
2019-05-05T12:52:30.144Z,51.60
2019-05-05T12:54:35.504Z,51.80
2019-05-05T12:56:40.605Z,51.80
2019-05-05T12:58:46.103Z,51.50
2019-05-05T13:01:03.679Z,51.10
2019-05-05T13:03:09.107Z,50.60
2019-05-05T13:05:14.583Z,49.80
2019-05-05T13:07:19.752Z,49.00
2019-05-05T13:09:25.052Z,48.70
2019-05-05T13:11:30.543Z,48.70
2019-05-05T13:13:36.105Z,49.20
2019-05-05T13:15:41.272Z,49.40
2019-05-05T13:17:46.737Z,49.50
2019-05-05T13:19:57.994Z,49.80
2019-05-05T13:22:21.424Z,48.70
2019-05-05T13:24:48.310Z,47.50
2019-05-05T13:27:00.720Z,47.00
2019-05-05T13:29:06.096Z,46.90
2019-05-05T13:31:13.936Z,47.00
2019-05-05T13:33:18.731Z,46.10
2019-05-05T13:35:23.898Z,45.90
2019-05-05T13:37:28.997Z,45.90
2019-05-05T13:39:34.582Z,46.10
2019-05-05T13:41:40.307Z,46.30
2019-05-05T13:43:45.412Z,46.10
2019-05-05T13:45:59.999Z,46.40
2019-05-05T13:48:05.488Z,46.00
2019-05-05T13:50:15.645Z,46.00
2019-05-05T13:52:20.800Z,45.90
2019-05-05T13:54:25.779Z,46.00
2019-05-05T13:56:31.103Z,46.20
2019-05-05T13:58:36.460Z,46.00
2019-05-05T14:00:41.722Z,46.00
2019-05-05T14:02:47.400Z,46.10
2019-05-05T14:04:54.181Z,46.40
2019-05-05T14:06:59.540Z,46.50
2019-05-05T14:09:06.260Z,45.90
2019-05-05T14:11:14.067Z,45.80
2019-05-05T14:13:18.684Z,45.40
2019-05-05T14:15:23.863Z,45.50
2019-05-05T14:17:29.205Z,45.40
2019-05-05T14:19:34.255Z,45.20
2019-05-05T14:21:39.597Z,44.60
2019-05-05T14:24:03.909Z,44.60
2019-05-05T14:26:21.607Z,44.70
2019-05-05T14:28:18.203Z,44.70
2019-05-05T14:30:43.611Z,44.60
2019-05-05T14:32:49.135Z,44.50
2019-05-05T14:35:00.570Z,44.50
2019-05-05T14:37:24.839Z,44.50
2019-05-05T14:39:30.032Z,44.50
2019-05-05T14:41:35.342Z,43.90
2019-05-05T14:43:41.259Z,43.80
2019-05-05T14:45:46.935Z,43.60
2019-05-05T14:47:53.480Z,43.60
2019-05-05T14:49:58.801Z,44.40
2019-05-05T14:52:04.421Z,43.90
2019-05-05T14:54:10.831Z,44.20
2019-05-05T14:56:15.962Z,44.80
2019-05-05T14:58:23.134Z,44.40
2019-05-05T15:00:30.288Z,44.20
2019-05-05T15:02:36.229Z,44.00
2019-05-05T15:04:43.816Z,43.90
2019-05-05T15:06:59.364Z,44.90
2019-05-05T15:09:14.989Z,44.20
2019-05-05T15:11:28.535Z,44.20
2019-05-05T15:13:33.744Z,44.30
2019-05-05T15:15:38.920Z,44.00
2019-05-05T15:17:43.950Z,43.50
2019-05-05T15:19:48.916Z,43.10
2019-05-05T15:21:54.522Z,43.30
2019-05-05T15:23:59.888Z,43.80
2019-05-05T15:26:05.017Z,42.60
2019-05-05T15:28:10.623Z,42.30
2019-05-05T15:30:16.478Z,42.20
2019-05-05T15:32:23.907Z,43.10
2019-05-05T15:34:29.026Z,43.30
2019-05-05T15:36:34.394Z,43.50
2019-05-05T15:38:39.794Z,43.50
2019-05-05T15:40:47.925Z,44.70
2019-05-05T15:42:54.548Z,45.50
2019-05-05T15:44:59.683Z,45.60
2019-05-05T15:47:05.469Z,46.00
2019-05-05T15:49:10.813Z,46.30
2019-05-05T15:51:15.905Z,46.70
2019-05-05T15:53:23.418Z,47.20
2019-05-05T15:55:28.272Z,47.50
2019-05-05T15:57:34.018Z,47.70
2019-05-05T15:59:39.084Z,48.00
2019-05-05T16:01:44.192Z,48.00
2019-05-05T16:03:49.672Z,48.50
2019-05-05T16:05:54.706Z,49.00
2019-05-05T16:08:01.526Z,49.70
2019-05-05T16:10:07.584Z,50.00
2019-05-05T16:12:14.374Z,50.10
2019-05-05T16:14:20.346Z,50.20
2019-05-05T16:16:39.224Z,50.40
2019-05-05T16:18:48.728Z,50.60
2019-05-05T16:21:00.566Z,50.80
2019-05-05T16:23:16.729Z,51.00
2019-05-05T16:25:21.865Z,51.40
2019-05-05T16:27:28.086Z,51.50
2019-05-05T16:29:33.714Z,52.00
2019-05-05T16:31:39.127Z,52.30
2019-05-05T16:33:44.488Z,52.40
2019-05-05T16:35:49.580Z,52.60
2019-05-05T16:37:54.530Z,52.90
2019-05-05T16:39:59.685Z,53.20
2019-05-05T16:42:04.851Z,53.30
2019-05-05T16:44:10.349Z,53.60
2019-05-05T16:46:17.033Z,53.80
2019-05-05T16:48:25.361Z,53.80
2019-05-05T16:50:29.914Z,53.80
2019-05-05T16:52:40.073Z,53.70
2019-05-05T16:55:08.751Z,53.60
2019-05-05T16:57:14.484Z,53.70
2019-05-05T16:59:19.696Z,53.70
2019-05-05T17:01:24.896Z,53.20
2019-05-05T17:03:30.046Z,53.00
2019-05-05T17:05:35.787Z,53.10
2019-05-05T17:07:40.893Z,53.20
2019-05-05T17:09:45.990Z,53.50
2019-05-05T17:12:10.264Z,53.20
2019-05-05T17:14:23.461Z,53.30
2019-05-05T17:16:47.168Z,53.30
2019-05-05T17:18:58.319Z,53.50
2019-05-05T17:21:08.000Z,53.90
2019-05-05T17:23:15.497Z,54.10
2019-05-05T17:25:20.385Z,54.30
2019-05-05T17:27:25.576Z,54.60
2019-05-05T17:29:31.386Z,54.80
2019-05-05T17:31:36.768Z,55.00
2019-05-05T17:33:44.205Z,55.30
2019-05-05T17:35:50.014Z,55.60
2019-05-05T17:37:57.988Z,56.20
2019-05-05T17:40:17.254Z,56.50
2019-05-05T17:42:40.245Z,56.80
2019-05-05T17:45:14.189Z,56.80
2019-05-05T17:47:24.391Z,57.00
2019-05-05T17:49:56.335Z,57.10
2019-05-05T17:52:07.043Z,57.00
2019-05-05T17:54:33.770Z,57.00
2019-05-05T17:56:38.871Z,57.00
2019-05-05T17:58:44.570Z,56.80
2019-05-05T18:00:55.129Z,56.90
2019-05-05T18:03:00.237Z,56.90
2019-05-05T18:05:05.491Z,56.90
2019-05-05T18:07:28.525Z,56.90
2019-05-05T18:09:51.328Z,57.00
2019-05-05T18:12:20.063Z,57.00
2019-05-05T18:14:26.354Z,56.90
2019-05-05T18:16:31.362Z,56.80
2019-05-05T18:18:36.395Z,57.00
2019-05-05T18:20:41.833Z,57.00
2019-05-05T18:22:47.179Z,57.00
2019-05-05T18:24:53.984Z,57.20
2019-05-05T18:26:59.152Z,57.20
2019-05-05T18:29:04.374Z,57.20
2019-05-05T18:31:09.833Z,57.20
2019-05-05T18:33:15.296Z,57.20
2019-05-05T18:35:20.340Z,57.30
2019-05-05T18:37:25.636Z,57.30
2019-05-05T18:39:34.338Z,57.30
2019-05-05T18:41:45.236Z,57.30
2019-05-05T18:44:06.305Z,57.30
2019-05-05T18:46:11.325Z,57.40
2019-05-05T18:48:17.159Z,57.30
2019-05-05T18:50:24.259Z,57.40
2019-05-05T18:52:29.719Z,57.30
2019-05-05T18:54:34.997Z,57.30
2019-05-05T18:56:40.372Z,57.30
2019-05-05T18:58:45.832Z,57.40
2019-05-05T19:00:58.637Z,57.40
2019-05-05T19:03:17.978Z,57.40
2019-05-05T19:05:34.417Z,57.70
2019-05-05T19:07:55.249Z,57.20
2019-05-05T19:09:54.110Z,57.20
2019-05-05T19:11:57.687Z,57.10
2019-05-05T19:14:02.885Z,57.10
2019-05-05T19:16:08.078Z,57.10
2019-05-05T19:18:14.074Z,57.20
2019-05-05T19:20:28.173Z,57.20
2019-05-05T19:22:35.972Z,57.00
2019-05-05T19:24:40.738Z,57.10
2019-05-05T19:26:45.925Z,57.20
2019-05-05T19:28:51.017Z,57.10
2019-05-05T19:30:56.131Z,57.20
2019-05-05T19:33:01.663Z,57.20
2019-05-05T19:35:07.300Z,57.30
2019-05-05T19:37:13.986Z,57.10
2019-05-05T19:39:19.300Z,57.20
2019-05-05T19:41:24.479Z,57.10
2019-05-05T19:43:29.784Z,57.20
2019-05-05T19:45:34.819Z,57.20
2019-05-05T19:47:40.311Z,57.20
2019-05-05T19:49:51.631Z,57.20
2019-05-05T19:51:56.712Z,57.30
2019-05-05T19:54:03.555Z,57.20
2019-05-05T19:56:08.739Z,57.20
2019-05-05T19:58:14.335Z,57.20
2019-05-05T20:00:20.447Z,57.20
2019-05-05T20:02:25.786Z,57.10
2019-05-05T20:04:31.097Z,57.20
2019-05-05T20:06:37.034Z,57.20
2019-05-05T20:08:44.249Z,57.20
2019-05-05T20:10:49.043Z,57.20
2019-05-05T20:12:54.438Z,57.00
2019-05-05T20:15:00.431Z,56.90
2019-05-05T20:17:14.883Z,56.80
2019-05-05T20:19:20.303Z,56.70
2019-05-05T20:21:25.329Z,56.60
2019-05-05T20:23:30.718Z,56.60
2019-05-05T20:25:35.839Z,56.60
2019-05-05T20:27:41.544Z,56.50
2019-05-05T20:29:46.568Z,56.30
2019-05-05T20:31:51.687Z,56.40
2019-05-05T20:34:04.058Z,56.30
2019-05-05T20:36:14.496Z,56.10
2019-05-05T20:38:25.518Z,56.10
2019-05-05T20:40:34.988Z,56.10
2019-05-05T20:42:40.563Z,56.80
2019-05-05T20:44:46.315Z,56.20
2019-05-05T20:46:53.449Z,56.40
2019-05-05T20:48:58.568Z,56.50
2019-05-05T20:51:04.314Z,56.60
2019-05-05T20:53:09.870Z,56.70
2019-05-05T20:55:15.337Z,56.80
2019-05-05T20:57:20.733Z,56.90
2019-05-05T20:59:30.664Z,56.90
2019-05-05T21:01:34.097Z,57.10
2019-05-05T21:03:39.635Z,57.00
2019-05-05T21:05:45.103Z,57.20
2019-05-05T21:07:51.383Z,57.30
2019-05-05T21:09:56.466Z,57.30
2019-05-05T21:12:01.516Z,57.30
2019-05-05T21:14:06.662Z,57.50
2019-05-05T21:16:14.176Z,57.50
2019-05-05T21:18:20.347Z,57.50
2019-05-05T21:20:25.807Z,57.50
2019-05-05T21:22:40.555Z,58.30
2019-05-05T21:24:45.521Z,58.30
2019-05-05T21:26:59.755Z,58.20
2019-05-05T21:29:05.281Z,58.20
2019-05-05T21:31:10.705Z,57.90
2019-05-05T21:33:15.877Z,57.70
2019-05-05T21:35:21.312Z,57.60
2019-05-05T21:37:27.070Z,57.30
2019-05-05T21:39:34.758Z,57.20
2019-05-05T21:41:39.613Z,57.20
2019-05-05T21:43:44.969Z,57.10
2019-05-05T21:45:50.363Z,57.10
2019-05-05T21:47:56.418Z,57.40
2019-05-05T21:50:03.711Z,57.10
2019-05-05T21:52:27.779Z,57.00
2019-05-05T21:54:43.785Z,56.90
2019-05-05T21:57:20.260Z,56.90
2019-05-05T21:59:25.624Z,56.80
2019-05-05T22:01:39.248Z,56.70
2019-05-05T22:03:40.126Z,56.70
2019-05-05T22:05:45.595Z,56.70
2019-05-05T22:07:51.139Z,56.60
2019-05-05T22:09:56.563Z,56.60
2019-05-05T22:12:04.040Z,56.70
2019-05-05T22:14:09.170Z,56.70
2019-05-05T22:16:14.622Z,56.80
2019-05-05T22:18:19.803Z,56.80
2019-05-05T22:20:39.293Z,57.00
2019-05-05T22:22:45.244Z,56.70
2019-05-05T22:24:50.997Z,57.80
2019-05-05T22:26:56.164Z,57.30
2019-05-05T22:29:04.726Z,57.40
2019-05-05T22:31:09.371Z,57.40
2019-05-05T22:33:15.803Z,57.50
2019-05-05T22:35:21.271Z,57.60
2019-05-05T22:37:26.740Z,57.60
2019-05-05T22:39:33.835Z,57.50
2019-05-05T22:41:39.151Z,57.60
2019-05-05T22:43:44.377Z,57.60
2019-05-05T22:45:49.834Z,57.70
2019-05-05T22:47:54.981Z,57.50
2019-05-05T22:50:00.584Z,57.40
2019-05-05T22:52:06.022Z,57.30
2019-05-05T22:54:11.109Z,57.10
2019-05-05T22:56:16.262Z,56.90
2019-05-05T22:58:21.411Z,57.00
2019-05-05T23:00:29.652Z,56.90
2019-05-05T23:02:37.355Z,56.80
2019-05-05T23:04:54.549Z,56.70
2019-05-05T23:07:04.007Z,56.70
2019-05-05T23:09:14.688Z,56.60
2019-05-05T23:11:19.594Z,56.60
2019-05-05T23:13:24.760Z,56.40
2019-05-05T23:15:29.774Z,56.50
2019-05-05T23:17:43.664Z,56.60
2019-05-05T23:20:07.364Z,56.60
2019-05-05T23:22:24.090Z,56.50
2019-05-05T23:24:34.838Z,56.50
2019-05-05T23:26:40.525Z,56.40
2019-05-05T23:28:45.601Z,56.40
2019-05-05T23:30:50.954Z,56.50
2019-05-05T23:32:56.028Z,56.40
2019-05-05T23:35:01.299Z,56.40
2019-05-05T23:37:06.784Z,56.40
2019-05-05T23:39:13.599Z,56.30
2019-05-05T23:41:19.112Z,56.40
2019-05-05T23:43:24.917Z,56.40
2019-05-05T23:45:30.197Z,56.40
2019-05-05T23:47:35.814Z,57.00
2019-05-05T23:49:40.975Z,56.30
2019-05-05T23:51:46.218Z,56.30
2019-05-05T23:53:51.554Z,56.30
2019-05-05T23:55:57.179Z,56.30
2019-05-05T23:58:03.789Z,56.40
